createdAt,value
2017-12-05T00:00:41.951Z,0
2017-12-05T00:02:43.733Z,0
2017-12-05T00:04:45.497Z,0
2017-12-05T00:06:47.328Z,0
2017-12-05T00:08:49.193Z,0
2017-12-05T00:10:51.012Z,0
2017-12-05T00:12:52.817Z,0
2017-12-05T00:14:54.931Z,0
2017-12-05T00:16:56.728Z,0
2017-12-05T00:18:58.551Z,0
2017-12-05T00:21:00.347Z,0
2017-12-05T00:23:02.195Z,0
2017-12-05T00:25:04.024Z,0
2017-12-05T00:27:46.286Z,0
2017-12-05T00:29:48.785Z,0
2017-12-05T00:31:50.310Z,0
2017-12-05T00:33:52.212Z,0
2017-12-05T00:35:53.953Z,0
2017-12-05T00:37:55.816Z,0
2017-12-05T00:39:57.578Z,0
2017-12-05T00:42:41.488Z,0
2017-12-05T00:44:44.061Z,0
2017-12-05T00:46:45.536Z,0
2017-12-05T00:48:47.072Z,0
2017-12-05T00:50:48.714Z,0
2017-12-05T00:52:50.561Z,0
2017-12-05T00:54:52.329Z,0
2017-12-05T00:56:54.343Z,0
2017-12-05T00:59:36.703Z,0
2017-12-05T01:01:38.857Z,0
2017-12-05T01:03:41.454Z,0
2017-12-05T01:05:43.268Z,0
2017-12-05T01:07:45.089Z,0
2017-12-05T01:09:47.087Z,0
2017-12-05T01:11:48.845Z,0
2017-12-05T01:14:35.519Z,0
2017-12-05T01:16:38.747Z,0
2017-12-05T01:18:40.584Z,0
2017-12-05T01:20:42.384Z,0
2017-12-05T01:22:44.090Z,0
2017-12-05T01:24:46.202Z,0
2017-12-05T01:26:48.023Z,0
2017-12-05T01:28:49.862Z,0
2017-12-05T01:31:32.163Z,0
2017-12-05T01:33:37.542Z,0
2017-12-05T01:35:39.925Z,0
2017-12-05T01:37:41.631Z,0
2017-12-05T01:39:43.414Z,0
2017-12-05T01:41:45.215Z,0
2017-12-05T01:43:47.058Z,0
2017-12-05T01:45:48.816Z,0
2017-12-05T01:47:50.752Z,0
2017-12-05T01:49:52.737Z,0
2017-12-05T01:51:54.533Z,0
2017-12-05T01:53:56.508Z,0
2017-12-05T01:55:58.292Z,0
2017-12-05T01:58:00.027Z,0
2017-12-05T02:00:01.996Z,0
2017-12-05T02:02:03.947Z,0
2017-12-05T02:04:05.935Z,0
2017-12-05T02:06:08.022Z,0
2017-12-05T02:08:09.837Z,0
2017-12-05T02:10:11.818Z,0
2017-12-05T02:12:13.653Z,0
2017-12-05T02:14:15.520Z,0
2017-12-05T02:16:17.067Z,0
2017-12-05T02:18:18.916Z,0
2017-12-05T02:20:20.674Z,0
2017-12-05T02:22:22.517Z,0
2017-12-05T02:24:24.321Z,0
2017-12-05T02:26:26.276Z,0
2017-12-05T02:28:28.098Z,0
2017-12-05T02:30:29.902Z,0
2017-12-05T02:32:31.734Z,0
2017-12-05T02:34:33.615Z,0
2017-12-05T02:36:35.482Z,0
2017-12-05T02:38:37.353Z,0
2017-12-05T02:40:39.239Z,0
2017-12-05T02:42:41.151Z,0
2017-12-05T02:44:42.938Z,0
2017-12-05T02:46:44.742Z,0
2017-12-05T02:48:46.558Z,0
2017-12-05T02:50:48.422Z,0
2017-12-05T02:52:50.428Z,0
2017-12-05T02:54:52.222Z,0
2017-12-05T02:56:53.907Z,0
2017-12-05T02:58:55.695Z,0
2017-12-05T03:00:57.693Z,0
2017-12-05T03:02:59.584Z,0
2017-12-05T03:05:41.968Z,0
2017-12-05T03:07:43.477Z,0
2017-12-05T03:09:44.991Z,0
2017-12-05T03:11:48.300Z,0
2017-12-05T03:13:50.260Z,0
2017-12-05T03:15:52.267Z,0
2017-12-05T03:17:54.022Z,0
2017-12-05T03:19:55.868Z,0
2017-12-05T03:22:38.086Z,0
2017-12-05T03:24:41.265Z,0
2017-12-05T03:26:42.993Z,0
2017-12-05T03:28:44.845Z,0
2017-12-05T03:30:46.640Z,0
2017-12-05T03:32:48.587Z,0
2017-12-05T03:34:50.405Z,0
2017-12-05T03:36:52.338Z,0
2017-12-05T03:39:35.561Z,0
2017-12-05T03:41:38.706Z,0
2017-12-05T03:43:40.746Z,0
2017-12-05T03:45:42.734Z,0
2017-12-05T03:47:44.551Z,0
2017-12-05T03:49:46.401Z,0
2017-12-05T03:51:48.351Z,0
2017-12-05T03:54:31.342Z,0
2017-12-05T03:56:33.659Z,0
2017-12-05T03:58:35.665Z,0
2017-12-05T04:00:37.285Z,0
2017-12-05T04:02:39.074Z,0
2017-12-05T04:04:41.507Z,0
2017-12-05T04:06:43.330Z,0
2017-12-05T04:08:45.324Z,0
2017-12-05T04:11:29.080Z,0
2017-12-05T04:13:31.760Z,0
2017-12-05T04:15:33.372Z,0
2017-12-05T04:17:35.003Z,0
2017-12-05T04:19:36.714Z,0
2017-12-05T04:21:38.320Z,32
2017-12-05T04:23:40.767Z,28
2017-12-05T04:25:42.498Z,0
2017-12-05T04:27:44.293Z,0
2017-12-05T04:29:46.116Z,0
2017-12-05T04:31:48.485Z,0
2017-12-05T04:33:50.158Z,0
2017-12-05T04:35:51.925Z,0
2017-12-05T04:37:54.220Z,0
2017-12-05T04:39:56.347Z,0
2017-12-05T04:41:58.014Z,0
2017-12-05T04:43:59.714Z,0
2017-12-05T04:46:01.453Z,0
2017-12-05T04:48:03.695Z,0
2017-12-05T04:50:05.912Z,0
2017-12-05T04:52:08.269Z,0
2017-12-05T04:54:10.075Z,0
2017-12-05T04:56:12.253Z,0
2017-12-05T04:58:14.063Z,0
2017-12-05T05:00:15.607Z,0
2017-12-05T05:02:17.769Z,0
2017-12-05T05:04:19.524Z,0
2017-12-05T05:06:21.728Z,0
2017-12-05T05:08:23.540Z,0
2017-12-05T05:10:25.339Z,0
2017-12-05T05:12:27.059Z,0
2017-12-05T05:14:28.811Z,0
2017-12-05T05:16:30.584Z,0
2017-12-05T05:18:32.304Z,0
2017-12-05T05:20:34.011Z,0
2017-12-05T05:22:35.801Z,0
2017-12-05T05:24:37.630Z,0
2017-12-05T05:26:40.642Z,0
2017-12-05T05:29:23.393Z,0
2017-12-05T05:31:24.910Z,0
2017-12-05T05:33:26.526Z,0
2017-12-05T05:35:29.434Z,0
2017-12-05T05:37:30.866Z,0
2017-12-05T05:39:33.265Z,0
2017-12-05T05:41:34.882Z,0
2017-12-05T05:43:36.596Z,0
2017-12-05T05:45:38.370Z,0
2017-12-05T05:47:40.163Z,0
2017-12-05T05:49:41.898Z,0
2017-12-05T05:51:43.710Z,0
2017-12-05T05:53:45.497Z,0
2017-12-05T05:55:47.244Z,0
2017-12-05T05:57:49.026Z,0
2017-12-05T05:59:50.608Z,0
2017-12-05T06:02:35.076Z,0
2017-12-05T06:04:36.547Z,0
2017-12-05T06:06:40.383Z,0
2017-12-05T06:08:42.742Z,0
2017-12-05T06:10:44.408Z,0
2017-12-05T06:12:46.235Z,0
2017-12-05T06:14:47.976Z,0
2017-12-05T06:17:30.027Z,0
2017-12-05T06:19:31.892Z,0
2017-12-05T06:21:35.333Z,0
2017-12-05T06:23:36.837Z,0
2017-12-05T06:25:39.191Z,0
2017-12-05T06:27:40.947Z,0
2017-12-05T06:29:42.764Z,0
2017-12-05T06:31:44.508Z,0
2017-12-05T06:33:46.176Z,0
2017-12-05T06:35:47.848Z,0
2017-12-05T06:37:49.524Z,0
2017-12-05T06:39:51.123Z,0
2017-12-05T06:41:52.841Z,0
2017-12-05T06:43:54.485Z,0
2017-12-05T06:45:56.124Z,0
2017-12-05T06:47:58.296Z,0
2017-12-05T06:50:45.865Z,0
2017-12-05T06:52:48.795Z,0
2017-12-05T06:54:50.984Z,0
2017-12-05T06:56:52.507Z,0
2017-12-05T06:58:54.720Z,0
2017-12-05T07:00:56.418Z,0
2017-12-05T07:02:58.143Z,4
2017-12-05T07:05:00.383Z,0
2017-12-05T07:07:02.071Z,4
2017-12-05T07:09:03.919Z,0
2017-12-05T07:11:05.675Z,4
2017-12-05T07:13:07.350Z,4
2017-12-05T07:15:09.075Z,4
2017-12-05T07:17:11.371Z,4
2017-12-05T07:19:13.152Z,4
2017-12-05T07:21:15.488Z,4
2017-12-05T07:23:17.239Z,8
2017-12-05T07:25:18.997Z,4
2017-12-05T07:27:20.751Z,8
2017-12-05T07:29:22.526Z,8
2017-12-05T07:31:24.761Z,12
2017-12-05T07:33:27.031Z,12
2017-12-05T07:35:28.714Z,16
2017-12-05T07:37:30.544Z,20
2017-12-05T07:39:32.332Z,16
2017-12-05T07:41:33.983Z,24
2017-12-05T07:43:35.673Z,32
2017-12-05T07:45:37.471Z,28
2017-12-05T07:47:39.665Z,28
2017-12-05T07:49:41.476Z,32
2017-12-05T07:51:43.748Z,40
2017-12-05T07:53:45.514Z,44
2017-12-05T07:55:47.312Z,44
2017-12-05T07:57:49.070Z,40
2017-12-05T07:59:51.339Z,48
2017-12-05T08:01:53.178Z,60
2017-12-05T08:03:54.987Z,52
2017-12-05T08:05:57.240Z,56
2017-12-05T08:07:59.025Z,60
2017-12-05T08:10:00.768Z,64
2017-12-05T08:12:02.507Z,64
2017-12-05T08:14:04.281Z,68
2017-12-05T08:16:06.080Z,76
2017-12-05T08:18:07.703Z,68
2017-12-05T08:20:09.816Z,80
2017-12-05T08:22:11.338Z,84
2017-12-05T08:24:54.432Z,84
2017-12-05T08:26:56.365Z,76
2017-12-05T08:28:58.005Z,76
2017-12-05T08:30:59.654Z,88
2017-12-05T08:33:01.528Z,96
2017-12-05T08:35:03.165Z,100
2017-12-05T08:37:05.148Z,88
2017-12-05T08:39:06.761Z,80
2017-12-05T08:41:49.846Z,68
2017-12-05T08:43:51.762Z,64
2017-12-05T08:45:54.332Z,64
2017-12-05T08:47:55.884Z,72
2017-12-05T08:49:57.412Z,76
2017-12-05T08:51:58.944Z,88
2017-12-05T08:54:01.647Z,92
2017-12-05T08:56:03.304Z,104
2017-12-05T08:58:05.432Z,108
2017-12-05T09:00:07.694Z,104
2017-12-05T09:02:09.258Z,100
2017-12-05T09:04:10.952Z,96
2017-12-05T09:06:13.365Z,96
2017-12-05T09:08:15.236Z,92
2017-12-05T09:10:16.909Z,96
2017-12-05T09:12:18.553Z,112
2017-12-05T09:14:20.276Z,128
2017-12-05T09:16:21.957Z,136
2017-12-05T09:18:23.676Z,156
2017-12-05T09:20:25.600Z,168
2017-12-05T09:22:27.454Z,176
2017-12-05T09:24:29.787Z,176
2017-12-05T09:26:31.477Z,184
2017-12-05T09:28:33.373Z,188
2017-12-05T09:30:35.160Z,188
2017-12-05T09:32:37.160Z,180
2017-12-05T09:34:39.159Z,168
2017-12-05T09:36:40.859Z,176
2017-12-05T09:38:42.382Z,168
2017-12-05T09:40:43.900Z,176
2017-12-05T09:42:46.066Z,208
2017-12-05T09:44:48.292Z,208
2017-12-05T09:46:50.470Z,220
2017-12-05T09:48:52.290Z,216
2017-12-05T09:50:54.114Z,212
2017-12-05T09:52:55.788Z,212
2017-12-05T09:54:57.292Z,200
2017-12-05T09:56:58.772Z,196
2017-12-05T09:59:00.322Z,196
2017-12-05T10:01:41.681Z,204
2017-12-05T10:03:43.166Z,208
2017-12-05T10:05:44.667Z,216
2017-12-05T10:07:46.152Z,220
2017-12-05T10:09:47.751Z,232
2017-12-05T10:11:49.348Z,244
2017-12-05T10:13:50.995Z,248
2017-12-05T10:16:33.377Z,240
2017-12-05T10:18:34.791Z,236
2017-12-05T10:20:36.586Z,224
2017-12-05T10:22:38.032Z,220
2017-12-05T10:24:39.574Z,216
2017-12-05T10:26:41.000Z,208
2017-12-05T10:28:42.410Z,220
2017-12-05T10:30:43.825Z,232
2017-12-05T10:32:45.285Z,232
2017-12-05T10:34:46.908Z,232
2017-12-05T10:36:48.798Z,236
2017-12-05T10:38:50.266Z,240
2017-12-05T10:40:52.572Z,240
2017-12-05T10:42:54.049Z,240
2017-12-05T10:44:56.135Z,240
2017-12-05T10:46:58.348Z,248
2017-12-05T10:49:39.828Z,248
2017-12-05T10:51:41.858Z,256
2017-12-05T10:53:43.810Z,268
2017-12-05T10:55:45.269Z,276
2017-12-05T10:57:46.792Z,284
2017-12-05T10:59:48.970Z,296
2017-12-05T11:01:50.498Z,304
2017-12-05T11:03:52.006Z,292
2017-12-05T11:05:53.545Z,288
2017-12-05T11:07:55.069Z,284
2017-12-05T11:09:56.550Z,260
2017-12-05T11:11:58.097Z,272
2017-12-05T11:13:59.569Z,284
2017-12-05T11:16:01.266Z,292
2017-12-05T11:18:02.814Z,292
2017-12-05T11:20:04.284Z,288
2017-12-05T11:22:06.047Z,288
2017-12-05T11:24:07.545Z,288
2017-12-05T11:26:09.055Z,284
2017-12-05T11:28:10.552Z,264
2017-12-05T11:30:12.051Z,244
2017-12-05T11:32:13.551Z,232
2017-12-05T11:34:15.050Z,212
2017-12-05T11:36:16.540Z,212
2017-12-05T11:38:18.157Z,220
2017-12-05T11:40:19.731Z,208
2017-12-05T11:42:21.171Z,204
2017-12-05T11:44:23.015Z,208
2017-12-05T11:46:24.668Z,208
2017-12-05T11:48:26.697Z,200
2017-12-05T11:50:28.151Z,196
2017-12-05T11:52:29.679Z,188
2017-12-05T11:54:31.383Z,188
2017-12-05T11:56:33.333Z,188
2017-12-05T11:58:35.145Z,216
2017-12-05T12:00:37.027Z,240
2017-12-05T12:02:38.649Z,252
2017-12-05T12:04:41.075Z,260
2017-12-05T12:06:42.609Z,260
2017-12-05T12:09:25.453Z,264
2017-12-05T12:11:26.960Z,288
2017-12-05T12:13:29.038Z,292
2017-12-05T12:15:30.678Z,280
2017-12-05T12:17:32.325Z,260
2017-12-05T12:19:33.877Z,252
2017-12-05T12:21:35.367Z,240
2017-12-05T12:24:18.031Z,232
2017-12-05T12:26:19.466Z,224
2017-12-05T12:28:20.928Z,216
2017-12-05T12:30:22.392Z,208
2017-12-05T12:32:23.896Z,208
2017-12-05T12:34:25.331Z,208
2017-12-05T12:36:26.768Z,212
2017-12-05T12:38:28.401Z,212
2017-12-05T12:41:11.529Z,224
2017-12-05T12:43:12.956Z,236
2017-12-05T12:45:14.636Z,244
2017-12-05T12:47:15.996Z,252
2017-12-05T12:49:17.887Z,264
2017-12-05T12:51:19.287Z,264
2017-12-05T12:53:20.907Z,252
2017-12-05T12:55:23.075Z,236
2017-12-05T12:57:24.855Z,208
2017-12-05T12:59:26.295Z,192
2017-12-05T13:01:27.851Z,180
2017-12-05T13:03:29.478Z,164
2017-12-05T13:05:31.241Z,156
2017-12-05T13:07:32.656Z,152
2017-12-05T13:09:34.156Z,164
2017-12-05T13:11:35.801Z,176
2017-12-05T13:13:37.652Z,200
2017-12-05T13:15:39.184Z,200
2017-12-05T13:17:41.784Z,188
2017-12-05T13:19:43.581Z,176
2017-12-05T13:21:45.397Z,180
2017-12-05T13:23:46.888Z,184
2017-12-05T13:25:48.673Z,180
2017-12-05T13:27:50.360Z,188
2017-12-05T13:29:52.004Z,176
2017-12-05T13:31:53.481Z,160
2017-12-05T13:33:54.996Z,156
2017-12-05T13:35:58.297Z,156
2017-12-05T13:38:00.158Z,160
2017-12-05T13:40:01.888Z,164
2017-12-05T13:42:03.513Z,168
2017-12-05T13:44:05.052Z,172
2017-12-05T13:46:06.616Z,176
2017-12-05T13:48:09.057Z,172
2017-12-05T13:50:10.727Z,172
2017-12-05T13:52:12.458Z,168
2017-12-05T13:54:14.559Z,152
2017-12-05T13:56:15.988Z,136
2017-12-05T13:58:17.509Z,116
2017-12-05T14:01:00.635Z,92
2017-12-05T14:03:02.178Z,80
2017-12-05T14:05:03.727Z,72
2017-12-05T14:07:05.257Z,64
2017-12-05T14:09:06.714Z,64
2017-12-05T14:11:08.124Z,60
2017-12-05T14:13:10.201Z,56
2017-12-05T14:15:11.633Z,56
2017-12-05T14:17:14.019Z,56
2017-12-05T14:19:15.719Z,56
2017-12-05T14:21:17.392Z,52
2017-12-05T14:23:19.002Z,60
2017-12-05T14:25:20.448Z,64
2017-12-05T14:27:21.957Z,60
2017-12-05T14:29:23.714Z,64
2017-12-05T14:31:25.589Z,60
2017-12-05T14:33:27.278Z,56
2017-12-05T14:35:29.531Z,52
2017-12-05T14:37:31.029Z,48
2017-12-05T14:39:32.536Z,48
2017-12-05T14:41:34.219Z,48
2017-12-05T14:43:35.937Z,48
2017-12-05T14:45:37.863Z,44
2017-12-05T14:47:39.527Z,48
2017-12-05T14:49:41.562Z,48
2017-12-05T14:51:43.447Z,44
2017-12-05T14:53:45.320Z,40
2017-12-05T14:55:47.317Z,32
2017-12-05T14:57:48.951Z,32
2017-12-05T14:59:50.634Z,32
2017-12-05T15:02:33.024Z,28
2017-12-05T15:04:34.436Z,24
2017-12-05T15:06:35.845Z,24
2017-12-05T15:08:37.280Z,20
2017-12-05T15:10:38.770Z,20
2017-12-05T15:12:40.838Z,16
2017-12-05T15:14:42.390Z,16
2017-12-05T15:16:44.185Z,12
2017-12-05T15:18:45.625Z,12
2017-12-05T15:20:47.050Z,12
2017-12-05T15:22:48.603Z,12
2017-12-05T15:24:50.568Z,4
2017-12-05T15:26:52.816Z,4
2017-12-05T15:28:54.491Z,4
2017-12-05T15:30:56.013Z,4
2017-12-05T15:32:57.605Z,4
2017-12-05T15:34:59.118Z,4
2017-12-05T15:37:00.538Z,4
2017-12-05T15:39:01.955Z,0
2017-12-05T15:41:03.362Z,0
2017-12-05T15:43:05.292Z,0
2017-12-05T15:45:06.779Z,0
2017-12-05T15:47:08.316Z,0
2017-12-05T15:49:09.820Z,0
2017-12-05T15:51:11.320Z,0
2017-12-05T15:53:12.946Z,0
2017-12-05T15:55:14.514Z,0
2017-12-05T15:57:15.969Z,0
2017-12-05T15:59:17.436Z,0
2017-12-05T16:01:19.131Z,0
2017-12-05T16:03:20.742Z,0
2017-12-05T16:06:03.129Z,0
2017-12-05T16:08:04.537Z,0
2017-12-05T16:10:05.963Z,0
2017-12-05T16:12:07.400Z,0
2017-12-05T16:14:08.820Z,0
2017-12-05T16:16:10.271Z,0
2017-12-05T16:18:11.702Z,0
2017-12-05T16:20:13.168Z,0
2017-12-05T16:22:56.533Z,0
2017-12-05T16:24:57.955Z,0
2017-12-05T16:26:59.362Z,0
2017-12-05T16:29:00.780Z,0
2017-12-05T16:31:02.193Z,0
2017-12-05T16:33:03.627Z,0
2017-12-05T16:35:05.104Z,0
2017-12-05T16:37:06.559Z,0
2017-12-05T16:39:49.146Z,0
2017-12-05T16:41:50.617Z,0
2017-12-05T16:43:52.024Z,0
2017-12-05T16:45:53.435Z,0
2017-12-05T16:47:54.853Z,0
2017-12-05T16:49:56.739Z,0
2017-12-05T16:51:58.241Z,0
2017-12-05T16:53:59.688Z,0
2017-12-05T16:56:01.163Z,0
2017-12-05T16:58:02.976Z,0
2017-12-05T17:00:04.610Z,0
2017-12-05T17:02:06.090Z,0
2017-12-05T17:04:07.602Z,0
2017-12-05T17:06:09.071Z,0
2017-12-05T17:08:10.901Z,0
2017-12-05T17:10:12.421Z,0
2017-12-05T17:12:13.966Z,0
2017-12-05T17:14:15.647Z,0
2017-12-05T17:16:17.172Z,0
2017-12-05T17:18:18.850Z,0
2017-12-05T17:20:20.398Z,0
2017-12-05T17:22:22.091Z,0
2017-12-05T17:24:23.556Z,0
2017-12-05T17:26:25.029Z,0
2017-12-05T17:28:26.528Z,0
2017-12-05T17:30:28.195Z,0
2017-12-05T17:32:30.049Z,0
2017-12-05T17:34:31.678Z,0
2017-12-05T17:36:33.145Z,0
2017-12-05T17:38:34.882Z,0
2017-12-05T17:40:37.080Z,0
2017-12-05T17:43:19.480Z,0
2017-12-05T17:45:20.888Z,0
2017-12-05T17:47:22.320Z,0
2017-12-05T17:49:23.806Z,0
2017-12-05T17:51:25.381Z,0
2017-12-05T17:53:26.875Z,0
2017-12-05T17:55:28.400Z,0
2017-12-05T17:57:29.793Z,0
2017-12-05T17:59:31.216Z,0
2017-12-05T18:01:32.625Z,0
2017-12-05T18:03:34.037Z,0
2017-12-05T18:05:35.462Z,0
2017-12-05T18:07:36.968Z,0
2017-12-05T18:09:38.471Z,0
2017-12-05T18:11:39.993Z,0
2017-12-05T18:13:41.409Z,0
2017-12-05T18:15:42.806Z,0
2017-12-05T18:17:44.221Z,0
2017-12-05T18:19:45.640Z,0
2017-12-05T18:21:47.077Z,0
2017-12-05T18:23:48.495Z,0
2017-12-05T18:25:49.921Z,0
2017-12-05T18:27:51.410Z,0
2017-12-05T18:29:52.933Z,0
2017-12-05T18:31:54.480Z,0
2017-12-05T18:33:56.078Z,0
2017-12-05T18:35:57.746Z,0
2017-12-05T18:37:59.509Z,0
2017-12-05T18:40:00.955Z,0
2017-12-05T18:42:02.592Z,0
2017-12-05T18:44:04.254Z,0
2017-12-05T18:46:05.749Z,0
2017-12-05T18:48:07.374Z,0
2017-12-05T18:50:08.888Z,0
2017-12-05T18:52:10.551Z,0
2017-12-05T18:54:12.113Z,0
2017-12-05T18:56:13.597Z,0
2017-12-05T18:58:15.100Z,0
2017-12-05T19:00:16.643Z,0
2017-12-05T19:02:18.530Z,0
2017-12-05T19:04:20.020Z,0
2017-12-05T19:06:21.545Z,0
2017-12-05T19:08:23.132Z,0
2017-12-05T19:10:24.625Z,0
2017-12-05T19:12:26.137Z,0
2017-12-05T19:14:27.618Z,0
2017-12-05T19:16:29.086Z,0
2017-12-05T19:18:30.929Z,0
2017-12-05T19:20:32.425Z,0
2017-12-05T19:22:34.324Z,0
2017-12-05T19:24:35.884Z,0
2017-12-05T19:26:37.363Z,0
2017-12-05T19:28:40.019Z,0
2017-12-05T19:30:43.937Z,0
2017-12-05T19:32:45.591Z,0
2017-12-05T19:34:47.034Z,0
2017-12-05T19:36:48.435Z,0
2017-12-05T19:38:49.850Z,0
2017-12-05T19:40:51.281Z,0
2017-12-05T19:42:52.686Z,0
2017-12-05T19:44:54.109Z,0
2017-12-05T19:46:55.531Z,0
2017-12-05T19:48:56.951Z,0
2017-12-05T19:50:58.369Z,0
2017-12-05T19:52:59.794Z,0
2017-12-05T19:55:01.253Z,0
2017-12-05T19:57:02.733Z,0
2017-12-05T19:59:04.147Z,0
2017-12-05T20:01:05.618Z,0
2017-12-05T20:03:07.099Z,0
2017-12-05T20:05:08.819Z,0
2017-12-05T20:07:10.312Z,0
2017-12-05T20:09:11.912Z,0
2017-12-05T20:11:13.633Z,0
2017-12-05T20:13:15.071Z,0
2017-12-05T20:15:16.683Z,0
2017-12-05T20:17:18.646Z,0
2017-12-05T20:19:20.308Z,0
2017-12-05T20:21:21.925Z,0
2017-12-05T20:23:23.552Z,0
2017-12-05T20:25:25.238Z,0
2017-12-05T20:27:26.891Z,0
2017-12-05T20:29:28.553Z,0
2017-12-05T20:31:30.070Z,0
2017-12-05T20:33:31.541Z,0
2017-12-05T20:35:33.321Z,0
2017-12-05T20:37:34.995Z,0
2017-12-05T20:39:36.476Z,0
2017-12-05T20:41:38.010Z,0
2017-12-05T20:43:39.465Z,0
2017-12-05T20:45:40.997Z,0
2017-12-05T20:47:42.544Z,0
2017-12-05T20:49:44.220Z,0
2017-12-05T20:51:46.265Z,0
2017-12-05T20:53:47.727Z,0
2017-12-05T20:55:49.555Z,0
2017-12-05T20:57:51.098Z,0
2017-12-05T20:59:52.588Z,0
2017-12-05T21:01:54.078Z,0
2017-12-05T21:03:55.548Z,0
2017-12-05T21:05:57.412Z,0
2017-12-05T21:07:58.945Z,0
2017-12-05T21:10:00.439Z,0
2017-12-05T21:12:02.116Z,0
2017-12-05T21:14:03.603Z,0
2017-12-05T21:16:05.046Z,0
2017-12-05T21:18:06.645Z,0
2017-12-05T21:20:08.141Z,0
2017-12-05T21:22:09.625Z,0
2017-12-05T21:24:11.220Z,0
2017-12-05T21:26:12.848Z,0
2017-12-05T21:28:14.354Z,0
2017-12-05T21:30:15.821Z,0
2017-12-05T21:32:17.264Z,0
2017-12-05T21:34:18.735Z,0
2017-12-05T21:36:20.219Z,0
2017-12-05T21:38:21.890Z,0
2017-12-05T21:40:24.006Z,0
2017-12-05T21:42:25.597Z,0
2017-12-05T21:44:27.218Z,0
2017-12-05T21:46:28.781Z,0
2017-12-05T21:48:30.283Z,0
2017-12-05T21:50:32.126Z,0
2017-12-05T21:52:33.556Z,0
2017-12-05T21:54:35.026Z,0
2017-12-05T21:56:36.505Z,0
2017-12-05T21:58:37.987Z,0
2017-12-05T22:00:39.442Z,0
2017-12-05T22:02:40.978Z,0
2017-12-05T22:04:42.434Z,0
2017-12-05T22:06:43.982Z,0
2017-12-05T22:08:45.595Z,0
2017-12-05T22:10:47.119Z,0
2017-12-05T22:12:48.600Z,0
2017-12-05T22:14:50.095Z,0
2017-12-05T22:16:51.554Z,0
2017-12-05T22:18:53.047Z,0
2017-12-05T22:20:54.712Z,0
2017-12-05T22:22:56.201Z,0
2017-12-05T22:24:57.709Z,0
2017-12-05T22:26:59.593Z,0
2017-12-05T22:29:01.452Z,0
2017-12-05T22:31:03.283Z,0
2017-12-05T22:33:47.011Z,0
2017-12-05T22:35:48.761Z,0
2017-12-05T22:37:50.902Z,0
2017-12-05T22:39:52.472Z,0
2017-12-05T22:41:54.150Z,0
2017-12-05T22:43:55.942Z,0
2017-12-05T22:45:58.335Z,0
2017-12-05T22:48:00.390Z,0
2017-12-05T22:50:42.983Z,0
2017-12-05T22:52:44.934Z,0
2017-12-05T22:54:48.613Z,0
2017-12-05T22:56:50.540Z,0
2017-12-05T22:58:52.235Z,0
2017-12-05T23:00:53.719Z,0
2017-12-05T23:02:55.237Z,0
2017-12-05T23:05:40.880Z,0
2017-12-05T23:07:42.632Z,0
2017-12-05T23:09:44.687Z,0
2017-12-05T23:11:46.561Z,0
2017-12-05T23:13:48.753Z,0
2017-12-05T23:15:50.883Z,0
2017-12-05T23:17:52.643Z,0
2017-12-05T23:19:54.446Z,0
2017-12-05T23:21:56.648Z,0
2017-12-05T23:23:58.614Z,0
2017-12-05T23:26:00.740Z,0
2017-12-05T23:28:02.528Z,0
2017-12-05T23:30:04.259Z,0
2017-12-05T23:32:06.573Z,0
2017-12-05T23:34:08.423Z,0
2017-12-05T23:36:10.518Z,0
2017-12-05T23:38:12.630Z,0
2017-12-05T23:40:14.365Z,0
2017-12-05T23:42:15.998Z,0
2017-12-05T23:44:18.112Z,0
2017-12-05T23:46:20.319Z,0
2017-12-05T23:48:22.316Z,0
2017-12-05T23:50:24.131Z,0
2017-12-05T23:52:26.048Z,0
2017-12-05T23:54:27.850Z,0
2017-12-05T23:56:29.714Z,0
2017-12-05T23:58:31.768Z,0
